createdAt,value
2023-01-30T00:00:00.889Z,101860.41
2023-01-30T00:02:29.875Z,101848.69
2023-01-30T00:05:00.542Z,101852.94
2023-01-30T00:07:27.681Z,101869.94
2023-01-30T00:09:54.823Z,101843.91
2023-01-30T00:12:24.888Z,101857.06
2023-01-30T00:14:52.631Z,101858.78
2023-01-30T00:17:22.294Z,101839.53
2023-01-30T00:19:49.847Z,101840.56
2023-01-30T00:22:17.335Z,101832.72
2023-01-30T00:24:44.601Z,101809.28
2023-01-30T00:27:12.059Z,101821.81
2023-01-30T00:29:39.558Z,101799.13
2023-01-30T00:32:07.597Z,101784.59
2023-01-30T00:34:35.138Z,101773.94
2023-01-30T00:37:08.404Z,101797.13
2023-01-30T00:39:36.194Z,101772.41
2023-01-30T00:42:21.777Z,101770.56
2023-01-30T00:45:11.337Z,101815.28
2023-01-30T00:47:45.795Z,101824.53
2023-01-30T00:50:21.064Z,101788.19
2023-01-30T00:55:43.691Z,101746.59
2023-01-30T00:58:23.107Z,101735.25
2023-01-30T01:00:51.965Z,101757.41
2023-01-30T01:03:27.634Z,101705.63
2023-01-30T01:06:02.028Z,101750.72
2023-01-30T01:08:38.283Z,101736.69
2023-01-30T01:11:07.066Z,101754.56
2023-01-30T01:13:36.472Z,101721.38
2023-01-30T01:16:03.960Z,101775.53
2023-01-30T01:18:39.826Z,101719.50
2023-01-30T01:21:09.983Z,101737.38
2023-01-30T01:23:37.186Z,101704.13
2023-01-30T01:26:04.755Z,101759.31
2023-01-30T01:28:33.336Z,101734.44
2023-01-30T01:31:00.824Z,101733.84
2023-01-30T01:33:29.054Z,101718.56
2023-01-30T01:35:57.060Z,101701.38
2023-01-30T01:38:27.373Z,101734.44
2023-01-30T01:41:05.145Z,101692.09
2023-01-30T01:43:38.794Z,101692.03
2023-01-30T01:46:17.306Z,101700.84
2023-01-30T01:48:52.626Z,101759.41
2023-01-30T01:51:27.304Z,101742.22
2023-01-30T01:53:57.748Z,101766.44
2023-01-30T01:56:27.152Z,101760.31
2023-01-30T01:59:02.843Z,101711.13
2023-01-30T02:01:30.595Z,101696.50
2023-01-30T02:04:02.587Z,101697.19
2023-01-30T02:06:31.899Z,101726.34
2023-01-30T02:09:04.951Z,101682.53
2023-01-30T02:11:43.677Z,101695.44
2023-01-30T02:14:12.641Z,101675.50
2023-01-30T02:16:44.500Z,101682.59
2023-01-30T02:19:24.019Z,101679.03
2023-01-30T02:22:28.452Z,101747.84
2023-01-30T02:25:25.300Z,101708.38
2023-01-30T02:28:20.201Z,101748.09
2023-01-30T02:31:16.955Z,101679.22
2023-01-30T02:33:58.032Z,101682.63
2023-01-30T02:36:41.344Z,101716.97
2023-01-30T02:39:37.507Z,101739.81
2023-01-30T02:42:31.060Z,101680.53
2023-01-30T02:45:10.266Z,101737.25
2023-01-30T02:47:45.494Z,101694.19
2023-01-30T02:50:27.073Z,101726.47
2023-01-30T02:52:54.974Z,101720.50
2023-01-30T02:55:27.981Z,101678.50
2023-01-30T02:57:57.130Z,101690.97
2023-01-30T03:00:53.984Z,101705.50
2023-01-30T03:04:01.525Z,101676.31
2023-01-30T03:06:31.646Z,101734.72
2023-01-30T03:09:21.881Z,101719.72
2023-01-30T03:11:57.405Z,101689.47
2023-01-30T03:14:34.638Z,101643.97
2023-01-30T03:17:06.813Z,101687.75
2023-01-30T03:19:35.103Z,101642.97
2023-01-30T03:22:02.842Z,101651.16
2023-01-30T03:24:29.970Z,101717.59
2023-01-30T03:27:11.647Z,101663.38
2023-01-30T03:29:40.029Z,101669.25
2023-01-30T03:32:07.709Z,101703.69
2023-01-30T03:34:34.744Z,101664.34
2023-01-30T03:37:02.121Z,101663.59
2023-01-30T03:39:31.993Z,101652.78
2023-01-30T03:42:00.215Z,101668.91
2023-01-30T03:44:27.370Z,101682.19
2023-01-30T03:46:54.721Z,101632.09
2023-01-30T03:49:24.182Z,101642.53
2023-01-30T03:51:51.539Z,101634.69
2023-01-30T03:54:18.628Z,101652.72
2023-01-30T03:56:45.952Z,101679.16
2023-01-30T03:59:14.558Z,101675.03
2023-01-30T04:01:42.661Z,101654.72
2023-01-30T04:04:09.723Z,101687.13
2023-01-30T04:06:40.787Z,101655.22
2023-01-30T04:09:09.415Z,101679.69
2023-01-30T04:11:36.646Z,101676.88
2023-01-30T04:14:05.810Z,101698.34
2023-01-30T04:16:36.362Z,101710.03
2023-01-30T04:19:03.584Z,101657.69
2023-01-30T04:21:31.047Z,101628.88
2023-01-30T04:24:00.540Z,101678.19
2023-01-30T04:26:27.822Z,101717.00
2023-01-30T04:28:54.868Z,101652.59
2023-01-30T04:31:22.151Z,101656.88
2023-01-30T04:33:53.842Z,101675.03
2023-01-30T04:36:21.200Z,101643.88
2023-01-30T04:38:48.838Z,101675.16
2023-01-30T04:41:16.119Z,101649.09
2023-01-30T04:43:45.434Z,101667.53
2023-01-30T04:46:12.472Z,101654.50
2023-01-30T04:48:39.896Z,101665.31
2023-01-30T04:51:17.244Z,101689.47
2023-01-30T04:53:44.457Z,101661.34
2023-01-30T04:56:12.923Z,101665.88
2023-01-30T04:58:39.700Z,101729.63
2023-01-30T05:01:20.666Z,101736.97
2023-01-30T05:03:56.185Z,101708.50
2023-01-30T05:06:24.139Z,101654.78
2023-01-30T05:08:53.254Z,101710.31
2023-01-30T05:11:22.001Z,101682.91
2023-01-30T05:13:50.976Z,101673.13
2023-01-30T05:16:21.319Z,101702.78
2023-01-30T05:18:49.064Z,101686.44
2023-01-30T05:21:25.482Z,101664.81
2023-01-30T05:23:55.131Z,101672.88
2023-01-30T05:26:22.777Z,101718.56
2023-01-30T05:28:54.926Z,101744.91
2023-01-30T05:31:23.380Z,101698.91
2023-01-30T05:33:53.117Z,101680.44
2023-01-30T05:36:24.188Z,101718.75
2023-01-30T05:38:54.839Z,101754.97
2023-01-30T05:41:23.435Z,101693.44
2023-01-30T05:43:52.189Z,101765.00
2023-01-30T05:46:19.745Z,101687.38
2023-01-30T05:48:50.631Z,101697.47
2023-01-30T05:51:27.832Z,101690.88
2023-01-30T05:54:00.407Z,101722.97
2023-01-30T05:56:30.817Z,101713.31
2023-01-30T05:58:58.222Z,101701.00
2023-01-30T06:01:25.719Z,101697.03
2023-01-30T06:03:56.711Z,101691.13
2023-01-30T06:06:24.331Z,101704.03
2023-01-30T06:08:56.000Z,101743.09
2023-01-30T06:11:25.177Z,101709.50
2023-01-30T06:13:54.880Z,101719.97
2023-01-30T06:16:22.060Z,101736.28
2023-01-30T06:18:51.391Z,101730.31
2023-01-30T06:21:18.636Z,101749.06
2023-01-30T06:23:48.393Z,101722.16
2023-01-30T06:26:15.444Z,101736.03
2023-01-30T06:28:43.031Z,101725.69
2023-01-30T06:31:10.126Z,101722.06
2023-01-30T06:33:40.278Z,101725.81
2023-01-30T06:36:07.684Z,101729.78
2023-01-30T06:38:37.255Z,101721.63
2023-01-30T06:41:04.217Z,101745.47
2023-01-30T06:43:31.440Z,101749.59
2023-01-30T06:46:02.134Z,101746.13
2023-01-30T06:48:29.549Z,101736.09
2023-01-30T06:50:59.744Z,101779.13
2023-01-30T06:53:30.642Z,101749.09
2023-01-30T06:55:58.876Z,101729.22
2023-01-30T06:58:27.453Z,101746.91
2023-01-30T07:00:54.573Z,101801.09
2023-01-30T07:03:43.265Z,101752.84
2023-01-30T07:06:16.683Z,101745.25
2023-01-30T07:08:44.737Z,101778.03
2023-01-30T07:11:12.080Z,101763.22
2023-01-30T07:13:39.028Z,101773.06
2023-01-30T07:16:06.442Z,101804.16
2023-01-30T07:18:40.118Z,101821.34
2023-01-30T07:21:12.896Z,101802.38
2023-01-30T07:23:43.923Z,101789.47
2023-01-30T07:26:29.359Z,101762.75
2023-01-30T07:29:02.208Z,101768.09
2023-01-30T07:31:32.378Z,101768.69
2023-01-30T07:33:59.590Z,101796.34
2023-01-30T07:36:26.767Z,101773.06
2023-01-30T07:38:53.857Z,101792.16
2023-01-30T07:41:20.850Z,101786.69
2023-01-30T07:43:49.802Z,101781.34
2023-01-30T07:46:19.540Z,101746.25
2023-01-30T07:48:48.595Z,101778.81
2023-01-30T07:51:15.828Z,101775.38
2023-01-30T07:53:49.202Z,101763.72
2023-01-30T07:56:24.321Z,101780.81
2023-01-30T07:58:55.657Z,101781.91
2023-01-30T08:01:24.328Z,101836.88
2023-01-30T08:03:54.145Z,101839.56
2023-01-30T08:06:23.473Z,101769.59
2023-01-30T08:08:53.643Z,101768.63
2023-01-30T08:11:26.487Z,101777.03
2023-01-30T08:13:56.323Z,101777.00
2023-01-30T08:16:26.016Z,101840.28
2023-01-30T08:18:53.841Z,101820.94
2023-01-30T08:21:21.161Z,101866.00
2023-01-30T08:23:51.210Z,101845.00
2023-01-30T08:26:19.152Z,101866.97
2023-01-30T08:28:47.337Z,101830.22
2023-01-30T08:31:17.966Z,101852.38
2023-01-30T08:33:45.242Z,101815.22
2023-01-30T08:36:12.759Z,101845.19
2023-01-30T08:38:42.109Z,101816.78
2023-01-30T08:41:11.221Z,101864.06
2023-01-30T08:43:39.137Z,101863.16
2023-01-30T08:46:09.789Z,101819.22
2023-01-30T08:48:50.220Z,101820.38
2023-01-30T08:54:12.064Z,101821.84
2023-01-30T08:57:25.097Z,101868.28
2023-01-30T09:00:45.334Z,101840.88
2023-01-30T09:03:41.652Z,101844.53
2023-01-30T09:06:24.472Z,101860.06
2023-01-30T09:08:53.335Z,101885.94
2023-01-30T09:11:24.489Z,101875.09
2023-01-30T09:14:08.965Z,101892.19
2023-01-30T09:16:37.027Z,101899.06
2023-01-30T09:19:03.831Z,101924.19
2023-01-30T09:21:32.312Z,101936.78
2023-01-30T09:23:59.767Z,101881.94
2023-01-30T09:26:34.501Z,101892.13
2023-01-30T09:29:02.101Z,101907.53
2023-01-30T09:31:29.444Z,101904.78
2023-01-30T09:33:59.587Z,101907.25
2023-01-30T09:39:47.006Z,101897.09
2023-01-30T09:42:38.093Z,101965.31
2023-01-30T09:45:24.254Z,101949.81
2023-01-30T09:48:39.669Z,101904.09
2023-01-30T09:51:40.094Z,101963.50
2023-01-30T09:57:26.311Z,101888.94
2023-01-30T10:00:09.760Z,101965.75
2023-01-30T10:03:08.646Z,101961.34
2023-01-30T10:06:22.400Z,101928.88
2023-01-30T10:09:30.390Z,101921.56
2023-01-30T10:12:20.314Z,101919.84
2023-01-30T10:15:15.171Z,101959.44
2023-01-30T10:18:04.902Z,101939.63
2023-01-30T10:20:47.261Z,101977.22
2023-01-30T10:23:44.819Z,101964.84
2023-01-30T10:26:20.202Z,101945.84
2023-01-30T10:29:09.319Z,102018.38
2023-01-30T10:31:59.100Z,101950.81
2023-01-30T10:34:35.497Z,102002.34
2023-01-30T10:37:14.187Z,101969.63
2023-01-30T10:39:59.827Z,102014.66
2023-01-30T10:42:51.545Z,102008.19
2023-01-30T10:45:25.781Z,101936.22
2023-01-30T10:48:26.551Z,102010.28
2023-01-30T10:51:11.230Z,101973.81
2023-01-30T10:56:31.957Z,102012.91
2023-01-30T10:59:18.610Z,102005.22
2023-01-30T11:01:54.556Z,101971.69
2023-01-30T11:04:33.084Z,102009.53
2023-01-30T11:07:02.518Z,101945.81
2023-01-30T11:09:49.015Z,101930.31
2023-01-30T11:12:16.301Z,102014.22
2023-01-30T11:14:58.718Z,102013.28
2023-01-30T11:17:46.055Z,101965.91
2023-01-30T11:20:21.021Z,101934.91
2023-01-30T11:22:54.730Z,101976.50
2023-01-30T11:25:23.097Z,101953.81
2023-01-30T11:28:06.677Z,102000.44
2023-01-30T11:30:37.413Z,101990.25
2023-01-30T11:33:18.461Z,102003.19
2023-01-30T11:36:05.373Z,102035.31
2023-01-30T11:38:35.110Z,101970.47
2023-01-30T11:41:11.196Z,102031.56
2023-01-30T11:43:43.542Z,102010.28
2023-01-30T11:46:16.817Z,101992.09
2023-01-30T11:49:32.254Z,101978.38
2023-01-30T11:51:37.721Z,101981.50
2023-01-30T11:54:07.708Z,101994.34
2023-01-30T11:56:42.927Z,101965.75
2023-01-30T11:59:38.858Z,101997.25
2023-01-30T12:02:33.235Z,102043.44
2023-01-30T12:05:03.384Z,101988.31
2023-01-30T12:07:32.760Z,102016.03
2023-01-30T12:10:00.682Z,101973.09
2023-01-30T12:12:46.284Z,102031.91
2023-01-30T12:15:25.351Z,102046.31
2023-01-30T12:18:12.106Z,102016.34
2023-01-30T12:21:20.196Z,102063.09
2023-01-30T12:23:57.641Z,102045.22
2023-01-30T12:27:16.293Z,102059.59
2023-01-30T12:30:36.300Z,101995.91
2023-01-30T12:33:07.414Z,101987.91
2023-01-30T12:36:16.639Z,102056.00
2023-01-30T12:39:05.461Z,102006.25
2023-01-30T12:42:25.634Z,102032.88
2023-01-30T12:45:07.390Z,102036.34
2023-01-30T12:47:49.707Z,102067.03
2023-01-30T12:50:33.914Z,102043.22
2023-01-30T12:53:26.130Z,102082.00
2023-01-30T12:56:14.817Z,102093.31
2023-01-30T12:58:51.641Z,102118.78
2023-01-30T13:01:40.755Z,102022.56
2023-01-30T13:04:51.200Z,102033.25
2023-01-30T13:07:51.391Z,102089.00
2023-01-30T13:10:45.523Z,102079.03
2023-01-30T13:13:43.278Z,102046.06
2023-01-30T13:16:32.222Z,102101.81
2023-01-30T13:19:21.134Z,102059.91
2023-01-30T13:22:04.491Z,102116.69
2023-01-30T13:24:58.071Z,102114.31
2023-01-30T13:27:27.624Z,102103.50
2023-01-30T13:29:55.084Z,102057.28
2023-01-30T13:32:46.483Z,102091.84
2023-01-30T13:35:29.452Z,102081.66
2023-01-30T13:37:58.056Z,102115.66
2023-01-30T13:40:34.697Z,102124.16
2023-01-30T13:43:12.258Z,102070.63
2023-01-30T13:45:45.547Z,102127.81
2023-01-30T13:48:33.563Z,102148.56
2023-01-30T13:51:23.433Z,102152.97
2023-01-30T13:54:09.382Z,102097.81
2023-01-30T13:56:42.596Z,102153.13
2023-01-30T13:59:42.528Z,102160.44
2023-01-30T14:02:20.075Z,102136.19
2023-01-30T14:04:50.155Z,102146.69
2023-01-30T14:07:23.368Z,102170.69
2023-01-30T14:10:22.343Z,102177.84
2023-01-30T14:16:10.721Z,102177.44
2023-01-30T14:18:42.707Z,102200.78
2023-01-30T14:21:21.248Z,102207.06
2023-01-30T14:24:24.697Z,102221.06
2023-01-30T14:26:59.552Z,102224.06
2023-01-30T14:30:25.253Z,102163.22
2023-01-30T14:32:58.527Z,102171.34
2023-01-30T14:35:35.981Z,102213.06
2023-01-30T14:38:53.954Z,102238.91
2023-01-30T14:41:29.327Z,102193.28
2023-01-30T14:43:57.189Z,102199.63
2023-01-30T14:46:23.924Z,102271.63
2023-01-30T14:49:18.983Z,102252.00
2023-01-30T14:51:48.461Z,102218.25
2023-01-30T14:54:15.152Z,102277.78
2023-01-30T14:57:02.714Z,102287.31
2023-01-30T14:59:38.285Z,102301.50
2023-01-30T15:02:24.170Z,102236.63
2023-01-30T15:05:21.556Z,102248.13
2023-01-30T15:08:10.751Z,102321.75
2023-01-30T15:10:56.024Z,102311.16
2023-01-30T15:13:43.677Z,102313.94
2023-01-30T15:16:28.415Z,102320.97
2023-01-30T15:19:04.146Z,102276.94
2023-01-30T15:21:41.104Z,102272.03
2023-01-30T15:24:36.343Z,102287.75
2023-01-30T15:27:21.962Z,102346.91
2023-01-30T15:30:18.830Z,102337.56
2023-01-30T15:32:46.191Z,102339.31
2023-01-30T15:35:19.190Z,102355.66
2023-01-30T15:37:46.529Z,102366.91
2023-01-30T15:40:31.997Z,102329.34
2023-01-30T15:43:01.934Z,102382.34
2023-01-30T15:45:55.102Z,102379.97
2023-01-30T15:48:58.486Z,102343.94
2023-01-30T15:51:34.575Z,102316.53
2023-01-30T15:54:11.402Z,102336.94
2023-01-30T15:56:45.283Z,102384.72
2023-01-30T15:59:46.472Z,102356.31
2023-01-30T16:02:39.443Z,102407.34
2023-01-30T16:05:21.070Z,102346.72
2023-01-30T16:07:50.810Z,102352.88
2023-01-30T16:10:24.120Z,102392.72
2023-01-30T16:12:57.352Z,102418.06
2023-01-30T16:15:38.931Z,102431.31
2023-01-30T16:18:52.620Z,102393.22
2023-01-30T16:21:23.952Z,102408.19
2023-01-30T16:23:59.656Z,102400.69
2023-01-30T16:26:27.047Z,102406.69
2023-01-30T16:29:02.337Z,102432.97
2023-01-30T16:31:34.860Z,102402.84
2023-01-30T16:34:02.299Z,102482.50
2023-01-30T16:36:33.353Z,102438.47
2023-01-30T16:39:00.529Z,102421.19
2023-01-30T16:41:39.519Z,102488.97
2023-01-30T16:44:24.396Z,102426.59
2023-01-30T16:47:06.899Z,102450.13
2023-01-30T16:49:37.179Z,102508.34
2023-01-30T16:52:06.188Z,102467.88
2023-01-30T16:54:36.896Z,102486.00
2023-01-30T16:57:04.843Z,102480.84
2023-01-30T16:59:34.756Z,102525.16
2023-01-30T17:02:06.331Z,102511.19
2023-01-30T17:04:41.440Z,102467.06
2023-01-30T17:07:34.467Z,102499.28
2023-01-30T17:10:01.834Z,102485.47
2023-01-30T17:12:31.242Z,102538.38
2023-01-30T17:15:10.407Z,102546.41
2023-01-30T17:17:39.763Z,102534.97
2023-01-30T17:20:11.166Z,102549.88
2023-01-30T17:22:43.421Z,102537.09
2023-01-30T17:25:47.560Z,102561.44
2023-01-30T17:28:24.805Z,102556.44
2023-01-30T17:30:55.239Z,102524.41
2023-01-30T17:33:27.557Z,102491.34
2023-01-30T17:36:08.597Z,102509.84
2023-01-30T17:38:40.636Z,102533.44
2023-01-30T17:41:21.850Z,102542.19
2023-01-30T17:43:50.923Z,102519.19
2023-01-30T17:46:22.949Z,102518.38
2023-01-30T17:48:52.906Z,102588.94
2023-01-30T17:51:19.932Z,102577.56
2023-01-30T17:53:47.163Z,102586.19
2023-01-30T17:56:27.736Z,102538.38
2023-01-30T17:58:55.477Z,102526.88
2023-01-30T18:01:27.347Z,102544.25
2023-01-30T18:03:55.853Z,102564.38
2023-01-30T18:06:24.746Z,102597.28
2023-01-30T18:08:51.940Z,102546.16
2023-01-30T18:11:20.276Z,102549.88
2023-01-30T18:13:51.106Z,102579.47
2023-01-30T18:16:26.992Z,102557.03
2023-01-30T18:18:54.238Z,102601.34
2023-01-30T18:21:26.816Z,102552.94
2023-01-30T18:24:14.396Z,102564.25
2023-01-30T18:26:45.317Z,102593.94
2023-01-30T18:29:15.373Z,102586.13
2023-01-30T18:31:42.928Z,102630.38
2023-01-30T18:34:11.460Z,102580.03
2023-01-30T18:36:39.205Z,102579.97
2023-01-30T18:39:07.535Z,102595.47
2023-01-30T18:41:35.541Z,102562.44
2023-01-30T18:44:05.231Z,102631.09
2023-01-30T18:46:34.018Z,102606.88
2023-01-30T18:49:01.108Z,102593.00
2023-01-30T18:51:34.193Z,102640.03
2023-01-30T18:54:01.529Z,102594.00
2023-01-30T18:56:31.937Z,102612.19
2023-01-30T18:59:02.714Z,102599.28
2023-01-30T19:01:43.590Z,102584.63
2023-01-30T19:04:11.788Z,102604.63
2023-01-30T19:06:41.897Z,102641.16
2023-01-30T19:09:13.077Z,102649.81
2023-01-30T19:11:58.751Z,102617.91
2023-01-30T19:14:25.832Z,102665.75
2023-01-30T19:16:53.048Z,102668.44
2023-01-30T19:19:19.979Z,102646.88
2023-01-30T19:21:47.864Z,102670.34
2023-01-30T19:24:16.513Z,102672.97
2023-01-30T19:26:43.515Z,102645.31
2023-01-30T19:29:10.778Z,102641.03
2023-01-30T19:31:37.769Z,102674.09
2023-01-30T19:34:07.527Z,102620.16
2023-01-30T19:36:36.341Z,102617.50
2023-01-30T19:39:05.908Z,102609.59
2023-01-30T19:41:35.602Z,102681.81
2023-01-30T19:44:05.827Z,102684.38
2023-01-30T19:46:32.717Z,102646.16
2023-01-30T19:49:00.599Z,102650.44
2023-01-30T19:51:30.079Z,102619.13
2023-01-30T19:54:03.047Z,102612.22
2023-01-30T19:56:32.814Z,102608.72
2023-01-30T19:59:01.309Z,102616.66
2023-01-30T20:01:33.183Z,102684.53
2023-01-30T20:04:02.074Z,102666.34
2023-01-30T20:06:32.082Z,102688.16
2023-01-30T20:09:01.907Z,102686.47
2023-01-30T20:11:29.890Z,102698.56
2023-01-30T20:13:57.387Z,102643.75
2023-01-30T20:16:27.574Z,102638.59
2023-01-30T20:18:58.362Z,102697.78
2023-01-30T20:21:26.899Z,102678.63
2023-01-30T20:23:55.392Z,102701.31
2023-01-30T20:26:28.387Z,102640.47
2023-01-30T20:28:55.767Z,102696.97
2023-01-30T20:31:26.168Z,102648.34
2023-01-30T20:33:56.004Z,102666.63
2023-01-30T20:36:24.666Z,102696.19
2023-01-30T20:38:52.408Z,102630.97
2023-01-30T20:41:22.333Z,102654.44
2023-01-30T20:43:53.181Z,102649.31
2023-01-30T20:46:27.457Z,102626.72
2023-01-30T20:48:56.531Z,102693.72
2023-01-30T20:51:29.362Z,102621.56
2023-01-30T20:54:05.430Z,102666.84
2023-01-30T20:56:45.104Z,102682.44
2023-01-30T20:59:15.393Z,102629.47
2023-01-30T21:01:42.956Z,102635.53
2023-01-30T21:04:13.631Z,102689.34
2023-01-30T21:06:45.429Z,102670.22
2023-01-30T21:09:16.679Z,102665.88
2023-01-30T21:11:44.037Z,102648.53
2023-01-30T21:14:10.855Z,102657.38
2023-01-30T21:16:38.467Z,102669.53
2023-01-30T21:19:08.260Z,102673.88
2023-01-30T21:21:39.117Z,102688.66
2023-01-30T21:24:11.460Z,102685.22
2023-01-30T21:26:40.641Z,102686.97
2023-01-30T21:29:08.691Z,102664.41
2023-01-30T21:31:37.154Z,102661.00
2023-01-30T21:34:05.272Z,102694.94
2023-01-30T21:36:31.948Z,102711.53
2023-01-30T21:39:17.168Z,102696.78
2023-01-30T21:41:51.188Z,102713.34
2023-01-30T21:44:20.122Z,102716.84
2023-01-30T21:46:48.282Z,102708.16
2023-01-30T21:49:16.367Z,102709.78
2023-01-30T21:51:44.957Z,102721.91
2023-01-30T21:54:11.961Z,102705.34
2023-01-30T21:56:38.810Z,102702.59
2023-01-30T21:59:06.239Z,102708.66
2023-01-30T22:01:34.298Z,102699.97
2023-01-30T22:04:02.433Z,102717.38
2023-01-30T22:06:29.586Z,102729.69
2023-01-30T22:08:57.491Z,102720.06
2023-01-30T22:11:24.253Z,102721.84
2023-01-30T22:13:51.564Z,102733.25
2023-01-30T22:16:21.217Z,102728.78
2023-01-30T22:18:53.114Z,102695.66
2023-01-30T22:21:22.178Z,102682.56
2023-01-30T22:23:52.270Z,102682.59
2023-01-30T22:26:20.728Z,102705.97
2023-01-30T22:28:47.716Z,102705.84
2023-01-30T22:31:17.029Z,102701.44
2023-01-30T22:33:45.340Z,102709.31
2023-01-30T22:36:12.430Z,102688.50
2023-01-30T22:38:43.937Z,102691.94
2023-01-30T22:41:14.634Z,102696.41
2023-01-30T22:43:55.409Z,102697.19
2023-01-30T22:46:27.649Z,102698.91
2023-01-30T22:48:54.917Z,102678.00
2023-01-30T22:51:24.324Z,102664.13
2023-01-30T22:53:53.988Z,102656.38
2023-01-30T22:56:22.723Z,102667.66
2023-01-30T22:58:50.475Z,102655.47
2023-01-30T23:01:22.851Z,102670.09
2023-01-30T23:03:57.917Z,102670.31
2023-01-30T23:06:25.672Z,102681.66
2023-01-30T23:08:54.304Z,102632.06
2023-01-30T23:11:23.682Z,102662.50
2023-01-30T23:13:54.660Z,102665.22
2023-01-30T23:16:25.635Z,102672.25
2023-01-30T23:18:56.187Z,102654.84
2023-01-30T23:21:42.009Z,102631.44
2023-01-30T23:24:12.440Z,102631.47
2023-01-30T23:26:41.955Z,102664.47
2023-01-30T23:29:13.327Z,102647.13
2023-01-30T23:31:42.506Z,102666.28
2023-01-30T23:34:13.863Z,102665.38
2023-01-30T23:36:40.975Z,102661.78
2023-01-30T23:39:08.187Z,102660.06
2023-01-30T23:41:36.610Z,102654.88
2023-01-30T23:44:05.191Z,102663.66
2023-01-30T23:46:35.278Z,102661.97
2023-01-30T23:49:06.144Z,102677.66
2023-01-30T23:51:35.629Z,102677.75
2023-01-30T23:54:03.943Z,102668.19
2023-01-30T23:56:33.590Z,102670.03
2023-01-30T23:59:00.404Z,102667.41
